Time;durP1;ratioP1;P1;durP2;ratioP2;P2;SDS_P1;SDS_P2;PMS_P1;PMS_P2;Temp;Humidity;BMP_temperature;BMP_pressure;BME280_temperature;BME280_humidity;BME280_pressure;Samples;Min_cycle;Max_cycle;Signal;HPM_P1;HPM_P2
2024/04/19 00:00:59;;;;;;;;;;;;;;;20.44;46.33;100798.28;2218707;26;5858;-64
2024/04/19 00:02:01;;;;;;;;;;;;;;;20.43;46.58;100805.44;2222398;26;2259;-63
2024/04/19 00:03:02;;;;;;;;;;;;;;;20.44;46.28;100806.91;2216035;26;2264;-64
2024/04/19 00:04:05;;;;;;;;;;;;;;;20.43;46.37;100798.91;2220214;26;2363;-63
2024/04/19 00:05:08;;;;;;;;;;;;;;;20.42;46.21;100795.31;2221823;26;2214;-64
2024/04/19 00:06:10;;;;;;;;;;;;;;;20.43;46.42;100796.03;2222858;26;2260;-64
2024/04/19 00:07:11;;;;;;;;;;;;;;;20.43;46.69;100793.16;2222351;26;2175;-63
2024/04/19 00:08:13;;;;;;;;;;;;;;;20.42;46.32;100792.44;2218306;26;2336;-64
2024/04/19 00:09:14;;;;;;;;;;;;;;;20.42;46.32;100798.19;2220725;26;2272;-64
2024/04/19 00:10:16;;;;;;;;;;;;;;;20.42;46.31;100791.69;2221345;26;2138;-64
2024/04/19 00:11:17;;;;;;;;;;;;;;;20.40;46.31;100792.34;2219871;26;2451;-63
2024/04/19 00:12:19;;;;;;;;;;;;;;;20.40;46.41;100795.22;2222507;26;2132;-64
2024/04/19 00:13:21;;;;;;;;;;;;;;;20.41;46.74;100802.47;2223523;26;2131;-64
2024/04/19 00:14:22;;;;;;;;;;;;;;;20.41;46.60;100795.94;2222422;26;2152;-64
2024/04/19 00:15:24;;;;;;;;;;;;;;;20.41;46.35;100793.06;2220422;26;2137;-64
2024/04/19 00:16:26;;;;;;;;;;;;;;;20.41;46.00;100790.97;2217131;26;2063;-64
2024/04/19 00:17:27;;;;;;;;;;;;;;;20.40;46.56;100789.47;2218620;26;2165;-64
2024/04/19 00:18:29;;;;;;;;;;;;;;;20.40;46.57;100783.72;2221324;26;2259;-64
2024/04/19 00:19:30;;;;;;;;;;;;;;;20.40;46.37;100783.72;2225430;26;2315;-64
2024/04/19 00:20:32;;;;;;;;;;;;;;;20.39;46.19;100781.50;2223559;26;2187;-64
2024/04/19 00:21:33;;;;;;;;;;;;;;;20.39;46.45;100781.50;2221940;26;2264;-64
2024/04/19 00:22:35;;;;;;;;;;;;;;;20.39;46.67;100788.00;2218794;26;2630;-64
2024/04/19 00:23:37;;;;;;;;;;;;;;;20.39;46.12;100782.22;2221171;26;2387;-64
2024/04/19 00:24:38;;;;;;;;;;;;;;;20.38;46.47;100783.63;2225415;26;2301;-64
2024/04/19 00:25:40;;;;;;;;;;;;;;;20.37;46.69;100785.00;2215482;26;2167;-64
2024/04/19 00:26:41;;;;;;;;;;;;;;;20.38;46.35;100780.72;2229368;26;2110;-64
2024/04/19 00:27:43;;;;;;;;;;;;;;;20.37;46.86;100773.50;2222974;26;2358;-63
2024/04/19 00:28:44;;;;;;;;;;;;;;;20.36;46.66;100780.63;2219364;26;2378;-64
2024/04/19 00:29:46;;;;;;;;;;;;;;;20.37;46.43;100767.75;2234717;26;2360;-64
2024/04/19 00:30:47;;;;;;;;;;;;;;;20.35;46.09;100770.53;2233910;26;5925;-63
2024/04/19 00:31:49;;;;;;;;;;;;;;;20.36;46.56;100772.00;2223815;26;2210;-64
2024/04/19 00:32:51;;;;;;;;;;;;;;;20.35;46.55;100764.78;2224918;26;2326;-63
2024/04/19 00:34:12;;;;;;;;;;;;;;;20.35;46.50;100770.53;2218158;26;2182;-64
2024/04/19 00:35:14;;;;;;;;;;;;;;;20.35;46.62;100764.78;2221355;26;2333;-64
2024/04/19 00:36:15;;;;;;;;;;;;;;;20.34;46.61;100769.06;2225007;26;2176;-64
2024/04/19 00:37:17;;;;;;;;;;;;;;;20.34;46.07;100762.56;2214595;26;2279;-64
2024/04/19 00:38:19;;;;;;;;;;;;;;;20.34;46.85;100762.56;2217708;26;2280;-64
2024/04/19 00:39:20;;;;;;;;;;;;;;;20.34;46.51;100763.31;2234516;26;2233;-64
2024/04/19 00:40:22;;;;;;;;;;;;;;;20.33;46.66;100761.09;2234387;26;2110;-63
2024/04/19 00:41:23;;;;;;;;;;;;;;;20.33;46.74;100756.06;2223890;26;2136;-65
2024/04/19 00:42:25;;;;;;;;;;;;;;;20.34;46.17;100757.56;2222765;26;2301;-64
2024/04/19 00:43:27;;;;;;;;;;;;;;;20.32;46.42;100760.34;2217388;26;2198;-63
2024/04/19 00:44:30;;;;;;;;;;;;;;;20.33;46.39;100761.81;2224174;26;2305;-64
2024/04/19 00:45:33;;;;;;;;;;;;;;;20.32;46.14;100753.84;2217482;26;2182;-64
2024/04/19 00:46:35;;;;;;;;;;;;;;;20.32;46.43;100753.84;2218515;26;2175;-64
2024/04/19 00:47:36;;;;;;;;;;;;;;;20.32;46.18;100757.47;2218720;26;2272;-63
2024/04/19 00:48:40;;;;;;;;;;;;;;;20.31;46.16;100755.97;2217283;26;2255;-64
2024/04/19 00:49:43;;;;;;;;;;;;;;;20.31;46.41;100758.84;2223146;26;2589;-63
2024/04/19 00:50:46;;;;;;;;;;;;;;;20.30;46.54;100752.38;2223778;26;2220;-63
2024/04/19 00:51:48;;;;;;;;;;;;;;;20.30;46.56;100758.13;2223304;26;2095;-64
2024/04/19 00:52:49;;;;;;;;;;;;;;;20.31;46.37;100753.09;2222223;26;2254;-64
2024/04/19 00:53:51;;;;;;;;;;;;;;;20.30;46.47;100745.88;2214213;26;2115;-63
2024/04/19 00:54:52;;;;;;;;;;;;;;;20.30;46.73;100754.50;2220518;26;2099;-64
2024/04/19 00:55:58;;;;;;;;;;;;;;;20.29;46.68;100745.16;2221204;26;2140;-64
2024/04/19 00:57:01;;;;;;;;;;;;;;;20.30;46.97;100749.50;2220725;26;2413;-64
2024/04/19 00:58:02;;;;;;;;;;;;;;;20.30;46.23;100751.63;2222018;26;2271;-63
2024/04/19 00:59:04;;;;;;;;;;;;;;;20.29;46.45;100750.13;2217149;26;2270;-64
2024/04/19 01:00:06;;;;;;;;;;;;;;;20.28;46.29;100743.66;2216517;26;6082;-63
2024/04/19 01:01:07;;;;;;;;;;;;;;;20.28;46.15;100748.66;2222284;26;2092;-64
2024/04/19 01:02:10;;;;;;;;;;;;;;;20.28;46.52;100745.78;2221373;26;2278;-63
2024/04/19 01:03:12;;;;;;;;;;;;;;;20.28;46.57;100742.91;2220466;26;2500;-64
2024/04/19 01:04:15;;;;;;;;;;;;;;;20.28;46.97;100745.78;2219122;26;2577;-63
2024/04/19 01:05:16;;;;;;;;;;;;;;;20.27;46.60;100736.44;2221349;26;2388;-64
2024/04/19 01:06:18;;;;;;;;;;;;;;;20.27;46.52;100741.41;2218240;26;2288;-64
2024/04/19 01:07:19;;;;;;;;;;;;;;;20.28;46.26;100731.41;2221268;26;2347;-64
2024/04/19 01:08:21;;;;;;;;;;;;;;;20.27;46.54;100732.78;2221074;26;2095;-64
2024/04/19 01:09:23;;;;;;;;;;;;;;;20.27;46.27;100732.78;2220519;26;2111;-64
2024/04/19 01:10:24;;;;;;;;;;;;;;;20.26;46.46;100728.44;2221513;26;2240;-63
2024/04/19 01:11:26;;;;;;;;;;;;;;;20.27;46.89;100735.66;2220104;26;2400;-64
2024/04/19 01:12:28;;;;;;;;;;;;;;;20.26;46.45;100731.31;2219103;26;2291;-64
2024/04/19 01:13:29;;;;;;;;;;;;;;;20.25;46.20;100727.69;2221604;26;2171;-64
2024/04/19 01:14:31;;;;;;;;;;;;;;;20.26;46.44;100731.31;2223289;26;2188;-64
2024/04/19 01:15:34;;;;;;;;;;;;;;;20.26;46.06;100734.19;2217985;26;2197;-64
2024/04/19 01:16:36;;;;;;;;;;;;;;;20.25;46.59;100726.97;2220599;26;2307;-64
2024/04/19 01:17:38;;;;;;;;;;;;;;;20.25;46.54;100721.94;2221221;26;2309;-64
2024/04/19 01:18:39;;;;;;;;;;;;;;;20.24;46.23;100717.56;2222252;26;2256;-64
2024/04/19 01:19:41;;;;;;;;;;;;;;;20.25;46.40;100715.47;2220255;26;2386;-64
2024/04/19 01:20:43;;;;;;;;;;;;;;;20.24;46.29;100722.59;2218883;26;2334;-64
2024/04/19 01:21:45;;;;;;;;;;;;;;;20.25;46.65;100718.34;2223233;26;2269;-64
2024/04/19 01:22:47;;;;;;;;;;;;;;;20.24;46.52;100716.84;2217594;26;2313;-64
2024/04/19 01:23:53;;;;;;;;;;;;;;;20.24;46.48;100713.97;2221903;26;2263;-63
2024/04/19 01:24:55;;;;;;;;;;;;;;;20.24;46.68;100708.94;2222094;26;2301;-63
2024/04/19 01:25:56;;;;;;;;;;;;;;;20.23;46.47;100709.63;2217606;26;2219;-64
2024/04/19 01:26:57;;;;;;;;;;;;;;;20.22;46.04;100708.13;2219954;26;2559;-63
2024/04/19 01:27:59;;;;;;;;;;;;;;;20.23;46.86;100706.75;2222410;26;2271;-64
2024/04/19 01:29:00;;;;;;;;;;;;;;;20.22;46.17;100708.88;2217522;26;2153;-63
2024/04/19 01:30:02;;;;;;;;;;;;;;;20.23;46.35;100703.88;2217058;26;6074;-64
2024/04/19 01:31:03;;;;;;;;;;;;;;;20.22;46.45;100702.38;2221318;26;2169;-64
2024/04/19 01:32:05;;;;;;;;;;;;;;;20.22;46.32;100700.22;2221892;26;2168;-64
2024/04/19 01:33:06;;;;;;;;;;;;;;;20.22;46.50;100700.22;2221374;26;2577;-64
2024/04/19 01:34:08;;;;;;;;;;;;;;;20.22;46.31;100693.75;2220327;26;2167;-64
2024/04/19 01:35:10;;;;;;;;;;;;;;;20.23;46.30;100690.22;2222536;26;2092;-64
2024/04/19 01:36:11;;;;;;;;;;;;;;;20.22;46.60;100699.50;2220967;26;2390;-64
2024/04/19 01:37:13;;;;;;;;;;;;;;;20.22;46.29;100696.63;2218781;26;2467;-63
2024/04/19 01:38:14;;;;;;;;;;;;;;;20.24;46.16;100690.97;2220215;26;2246;-64
2024/04/19 01:39:16;;;;;;;;;;;;;;;20.21;46.43;100687.25;2222164;26;2297;-64
2024/04/19 01:40:17;;;;;;;;;;;;;;;20.22;46.60;100688.00;2218956;26;2268;-64
2024/04/19 01:41:19;;;;;;;;;;;;;;;20.21;46.05;100680.78;2221738;26;2430;-63
2024/04/19 01:42:20;;;;;;;;;;;;;;;20.21;46.53;100675.75;2221343;26;2017;-64
2024/04/19 01:43:22;;;;;;;;;;;;;;;20.20;46.61;100679.28;2223244;26;2119;-64
2024/04/19 01:44:23;;;;;;;;;;;;;;;20.19;46.03;100669.19;2215720;26;2095;-64
2024/04/19 01:45:25;;;;;;;;;;;;;;;20.19;46.39;100672.06;2221171;26;2267;-64
2024/04/19 01:46:26;;;;;;;;;;;;;;;20.20;46.47;100679.28;2214525;26;2319;-64
2024/04/19 01:47:28;;;;;;;;;;;;;;;20.20;46.39;100680.03;2219785;26;2204;-63
2024/04/19 01:48:29;;;;;;;;;;;;;;;20.19;46.31;100672.06;2218364;26;2293;-64
2024/04/19 01:49:31;;;;;;;;;;;;;;;20.20;46.66;100673.53;2222039;26;2232;-64
2024/04/19 01:50:32;;;;;;;;;;;;;;;20.20;46.45;100667.78;2221587;26;2541;-64
2024/04/19 01:51:33;;;;;;;;;;;;;;;20.19;46.12;100672.78;2223773;26;2047;-64
2024/04/19 01:52:35;;;;;;;;;;;;;;;20.19;46.00;100666.31;2221226;26;2210;-64
2024/04/19 01:53:36;;;;;;;;;;;;;;;20.18;46.67;100664.81;2222827;26;2332;-63
2024/04/19 01:54:38;;;;;;;;;;;;;;;20.18;46.15;100664.81;2222088;26;2430;-63
2024/04/19 01:55:39;;;;;;;;;;;;;;;20.18;46.60;100668.44;2212491;26;2211;-64
2024/04/19 01:56:41;;;;;;;;;;;;;;;20.17;46.35;100658.31;2219678;26;2336;-64
2024/04/19 01:57:43;;;;;;;;;;;;;;;20.17;46.75;100661.22;2217305;26;2251;-64
2024/04/19 01:58:45;;;;;;;;;;;;;;;20.17;46.58;100651.84;2218892;26;2638;-64
2024/04/19 01:59:46;;;;;;;;;;;;;;;20.16;46.37;100653.22;2216051;26;2063;-64
2024/04/19 02:00:48;;;;;;;;;;;;;;;20.16;46.31;100656.09;2221290;26;5906;-64
2024/04/19 02:01:49;;;;;;;;;;;;;;;20.16;46.14;100656.09;2221010;26;2375;-64
2024/04/19 02:02:51;;;;;;;;;;;;;;;20.16;46.34;100647.47;2216778;26;2432;-64
2024/04/19 02:03:52;;;;;;;;;;;;;;;20.15;46.42;100646.00;2220820;26;2197;-64
2024/04/19 02:04:56;;;;;;;;;;;;;;;20.15;46.42;100654.63;2220238;26;2310;-64
2024/04/19 02:06:05;;;;;;;;;;;;;;;20.15;46.45;100646.00;2219974;26;2218;-64
2024/04/19 02:07:07;;;;;;;;;;;;;;;20.15;46.10;100637.38;2217190;26;2207;-64
2024/04/19 02:08:08;;;;;;;;;;;;;;;20.15;46.68;100638.13;2215827;26;2596;-64
2024/04/19 02:09:10;;;;;;;;;;;;;;;20.14;46.60;100641.66;2219065;26;2310;-64
2024/04/19 02:10:11;;;;;;;;;;;;;;;20.14;46.53;100636.66;2223611;26;2144;-63
2024/04/19 02:11:13;;;;;;;;;;;;;;;20.14;46.71;100633.03;2222208;26;2135;-64
2024/04/19 02:12:14;;;;;;;;;;;;;;;20.12;46.40;100635.81;2220230;26;2099;-64
2024/04/19 02:13:16;;;;;;;;;;;;;;;20.14;46.43;100635.91;2221931;26;2363;-64
2024/04/19 02:14:17;;;;;;;;;;;;;;;20.13;46.06;100629.41;2218510;26;2247;-63
2024/04/19 02:15:19;;;;;;;;;;;;;;;20.12;46.63;100633.69;2214455;26;2386;-64
2024/04/19 02:16:21;;;;;;;;;;;;;;;20.13;46.25;100628.66;2217667;26;2339;-63
2024/04/19 02:17:23;;;;;;;;;;;;;;;20.11;46.26;100631.44;2217615;26;2295;-63
2024/04/19 02:18:24;;;;;;;;;;;;;;;20.12;46.73;100621.44;2222167;26;2328;-65
2024/04/19 02:19:26;;;;;;;;;;;;;;;20.11;46.52;100625.69;2221963;26;2471;-64
2024/04/19 02:20:28;;;;;;;;;;;;;;;20.11;46.41;100619.94;2220703;26;2112;-64
2024/04/19 02:21:29;;;;;;;;;;;;;;;20.11;46.37;100611.31;2222545;26;2096;-64
2024/04/19 02:22:31;;;;;;;;;;;;;;;20.12;46.46;100615.69;2221721;26;2104;-63
2024/04/19 02:23:35;;;;;;;;;;;;;;;20.11;46.18;100614.19;2221212;26;2168;-63
2024/04/19 02:24:37;;;;;;;;;;;;;;;20.11;46.14;100608.44;2223045;26;2357;-64
2024/04/19 02:25:38;;;;;;;;;;;;;;;20.11;46.36;100605.56;2216855;26;2234;-64
2024/04/19 02:26:43;;;;;;;;;;;;;;;20.10;46.45;100601.97;2219290;26;2418;-64
2024/04/19 02:31:45;;;;;;;;;;;;;;;20.08;46.41;100593.97;2215947;26;2135;-63
2024/04/19 02:32:46;;;;;;;;;;;;;;;20.08;46.67;100593.97;2219381;26;2197;-63
2024/04/19 02:33:48;;;;;;;;;;;;;;;20.08;46.02;100591.13;2221125;26;2297;-64
2024/04/19 02:34:50;;;;;;;;;;;;;;;20.08;46.75;100593.97;2219405;26;2235;-64
2024/04/19 02:35:52;;;;;;;;;;;;;;;20.07;46.70;100586.03;2220492;26;2386;-63
2024/04/19 02:36:53;;;;;;;;;;;;;;;20.08;46.43;100588.25;2223558;26;2410;-64
2024/04/19 02:37:55;;;;;;;;;;;;;;;20.07;46.16;100586.78;2218425;26;2322;-64
2024/04/19 02:38:56;;;;;;;;;;;;;;;20.09;46.10;100583.25;2219310;26;2149;-63
2024/04/19 02:39:58;;;;;;;;;;;;;;;20.08;46.18;100576.75;2219252;26;2341;-64
2024/04/19 02:40:59;;;;;;;;;;;;;;;20.09;46.42;100583.97;2223962;26;2342;-64
2024/04/19 02:42:01;;;;;;;;;;;;;;;20.12;46.57;100581.19;2218517;26;2151;-64
2024/04/19 02:43:02;;;;;;;;;;;;;;;20.13;46.28;100579.78;2218261;26;2201;-64
2024/04/19 02:44:04;;;;;;;;;;;;;;;20.13;46.21;100568.28;2216829;26;2079;-64
2024/04/19 02:45:06;;;;;;;;;;;;;;;20.15;46.40;100569.13;2219008;26;2336;-64
2024/04/19 02:46:07;;;;;;;;;;;;;;;20.17;45.90;100571.34;2218493;26;2304;-64
2024/04/19 02:47:09;;;;;;;;;;;;;;;20.18;46.11;100567.84;2223989;26;2321;-63
2024/04/19 02:48:10;;;;;;;;;;;;;;;20.18;45.96;100561.31;2218209;26;2167;-64
2024/04/19 02:49:12;;;;;;;;;;;;;;;20.20;46.46;100564.28;2222471;26;2199;-63
2024/04/19 02:50:13;;;;;;;;;;;;;;;20.20;46.38;100565.03;2221443;26;2337;-64
2024/04/19 02:51:15;;;;;;;;;;;;;;;20.22;46.18;100558.63;2221248;26;2314;-64
2024/04/19 02:52:17;;;;;;;;;;;;;;;20.22;45.77;100558.63;2209813;26;2157;-64
2024/04/19 02:53:18;;;;;;;;;;;;;;;20.23;46.21;100551.50;2218560;26;2123;-63
2024/04/19 02:54:20;;;;;;;;;;;;;;;20.22;46.03;100550.72;2215683;26;2137;-64
2024/04/19 02:55:21;;;;;;;;;;;;;;;20.23;46.03;100542.88;2218823;26;2240;-63
2024/04/19 02:56:23;;;;;;;;;;;;;;;20.24;46.02;100541.47;2220415;26;2126;-64
2024/04/19 02:57:24;;;;;;;;;;;;;;;20.24;46.46;100547.94;2221983;26;2220;-63
2024/04/19 02:58:26;;;;;;;;;;;;;;;20.25;46.99;100542.97;2217954;26;2118;-64
2024/04/19 02:59:27;;;;;;;;;;;;;;;20.24;46.15;100539.31;2222515;26;2116;-64
2024/04/19 03:00:29;;;;;;;;;;;;;;;20.25;46.46;100543.69;2219088;26;6079;-64
2024/04/19 03:01:30;;;;;;;;;;;;;;;20.25;46.53;100537.94;2220416;26;2307;-64
2024/04/19 03:02:32;;;;;;;;;;;;;;;20.25;46.91;100537.19;2223416;26;2271;-64
2024/04/19 03:03:33;;;;;;;;;;;;;;;20.26;46.83;100535.78;2210817;26;2325;-64
2024/04/19 03:04:37;;;;;;;;;;;;;;;20.25;46.68;100532.19;2218603;26;2282;-64
2024/04/19 03:05:39;;;;;;;;;;;;;;;20.25;46.78;100529.31;2220055;26;2379;-64
2024/04/19 03:06:40;;;;;;;;;;;;;;;20.25;46.80;100525.69;2225575;26;2466;-64
2024/04/19 03:07:42;;;;;;;;;;;;;;;20.25;46.76;100525.69;2211496;26;2119;-64
2024/04/19 03:08:43;;;;;;;;;;;;;;;20.25;46.52;100525.69;2220077;26;2260;-63
2024/04/19 03:09:46;;;;;;;;;;;;;;;20.25;46.13;100525.69;2217327;26;2198;-64
2024/04/19 03:10:48;;;;;;;;;;;;;;;20.26;46.85;100527.16;2218224;26;2468;-63
2024/04/19 03:11:49;;;;;;;;;;;;;;;20.24;46.54;100522.06;2222326;26;2187;-63
2024/04/19 03:12:54;;;;;;;;;;;;;;;20.25;46.36;100519.94;2218905;26;2346;-64
2024/04/19 03:13:56;;;;;;;;;;;;;;;20.25;46.47;100523.56;2221812;26;2161;-64
2024/04/19 03:14:57;;;;;;;;;;;;;;;20.26;46.63;100516.41;2217957;26;2228;-64
2024/04/19 03:16:06;;;;;;;;;;;;;;;20.26;46.60;100521.41;2216672;26;2292;-64
2024/04/19 03:17:07;;;;;;;;;;;;;;;20.26;46.34;100516.41;2219960;26;2103;-64
2024/04/19 03:18:09;;;;;;;;;;;;;;;20.27;46.48;100520.00;2220369;26;2000;-64
2024/04/19 03:19:10;;;;;;;;;;;;;;;20.28;46.88;100518.63;2219353;26;2228;-64
2024/04/19 03:20:12;;;;;;;;;;;;;;;20.28;46.07;100512.88;2218128;26;2157;-64
2024/04/19 03:21:14;;;;;;;;;;;;;;;20.28;46.14;100507.13;2219853;26;2283;-63
2024/04/19 03:22:16;;;;;;;;;;;;;;;20.28;46.35;100507.13;2220651;26;2207;-64
2024/04/19 03:23:18;;;;;;;;;;;;;;;20.28;46.41;100504.25;2220923;26;2258;-64
2024/04/19 03:24:19;;;;;;;;;;;;;;;20.28;46.79;100507.13;2225140;26;2178;-63
2024/04/19 03:25:21;;;;;;;;;;;;;;;20.28;46.64;100499.25;2219304;26;2425;-63
2024/04/19 03:26:23;;;;;;;;;;;;;;;20.29;46.69;100494.22;2222095;26;2260;-64
2024/04/19 03:27:24;;;;;;;;;;;;;;;20.29;46.78;100494.22;2222955;26;2107;-64
2024/04/19 03:28:26;;;;;;;;;;;;;;;20.28;46.34;100505.00;2221071;26;2157;-64
2024/04/19 03:29:28;;;;;;;;;;;;;;;20.29;46.37;100494.22;2223493;26;2035;-64
2024/04/19 03:30:33;;;;;;;;;;;;;;;20.28;46.63;100487.00;2218921;26;5975;-64
2024/04/19 03:31:35;;;;;;;;;;;;;;;20.28;47.00;100489.88;2218750;26;2389;-63
2024/04/19 03:32:36;;;;;;;;;;;;;;;20.28;46.88;100489.88;2222798;26;2051;-64
2024/04/19 03:33:38;;;;;;;;;;;;;;;20.27;46.61;100486.28;2222550;26;2277;-63
2024/04/19 03:34:41;;;;;;;;;;;;;;;20.28;46.55;100489.88;2219009;26;2115;-63
2024/04/19 03:35:43;;;;;;;;;;;;;;;20.28;46.51;100484.13;2221285;26;2166;-64
2024/04/19 03:36:44;;;;;;;;;;;;;;;20.29;46.78;100479.84;2220211;26;2279;-63
2024/04/19 03:37:46;;;;;;;;;;;;;;;20.29;46.85;100482.72;2219713;26;2425;-63
2024/04/19 03:38:47;;;;;;;;;;;;;;;20.29;46.51;100485.59;2224205;26;2072;-64
2024/04/19 03:39:49;;;;;;;;;;;;;;;20.30;46.57;100489.97;2213657;26;2095;-64
2024/04/19 03:40:54;;;;;;;;;;;;;;;20.30;46.81;100481.34;2223998;26;2100;-64
2024/04/19 03:41:56;;;;;;;;;;;;;;;20.29;46.74;100474.09;2220653;26;2315;-65
2024/04/19 03:42:59;;;;;;;;;;;;;;;20.29;46.39;100471.22;2222545;26;2134;-71
2024/04/19 03:46:41;;;;;;;;;;;;;;;20.31;46.85;100471.31;2220887;26;2232;-69
2024/04/19 03:47:42;;;;;;;;;;;;;;;20.31;46.73;100465.56;2227885;26;2093;-68
2024/04/19 03:48:44;;;;;;;;;;;;;;;20.30;46.64;100458.34;2229824;26;1977;-69
2024/04/19 03:49:46;;;;;;;;;;;;;;;20.32;46.81;100466.28;2223451;26;2132;-68
2024/04/19 03:50:47;;;;;;;;;;;;;;;20.32;46.70;100461.28;2220565;26;2116;-68
2024/04/19 03:51:49;;;;;;;;;;;;;;;20.32;46.94;100458.41;2223404;26;2024;-68
2024/04/19 03:52:50;;;;;;;;;;;;;;;20.32;46.41;100461.28;2219014;26;2083;-68
2024/04/19 03:53:52;;;;;;;;;;;;;;;20.32;46.67;100452.66;2218856;26;2247;-69
2024/04/19 03:54:55;;;;;;;;;;;;;;;20.32;46.25;100452.66;2220640;26;2149;-68
2024/04/19 03:55:56;;;;;;;;;;;;;;;20.33;46.73;100451.25;2219384;26;2153;-68
2024/04/19 03:56:58;;;;;;;;;;;;;;;20.33;46.97;100457.00;2221591;26;2234;-68
2024/04/19 03:57:59;;;;;;;;;;;;;;;20.32;46.84;100446.91;2219369;26;2302;-69
2024/04/19 03:59:00;;;;;;;;;;;;;;;20.33;46.54;100450.53;2222077;26;2240;-69
2024/04/19 04:00:02;;;;;;;;;;;;;;;20.31;46.58;100445.44;2219582;26;5924;-68
2024/04/19 04:01:05;;;;;;;;;;;;;;;20.31;46.61;100445.44;2221705;26;2471;-68
2024/04/19 04:02:06;;;;;;;;;;;;;;;20.31;46.73;100439.69;2218272;26;2101;-69
2024/04/19 04:03:08;;;;;;;;;;;;;;;20.32;46.48;100443.28;2220446;26;2331;-69
2024/04/19 04:04:09;;;;;;;;;;;;;;;20.31;46.68;100445.44;2220133;26;2294;-69
2024/04/19 04:05:11;;;;;;;;;;;;;;;20.32;46.57;100443.28;2223028;26;2359;-68
2024/04/19 04:06:12;;;;;;;;;;;;;;;20.31;46.67;100431.03;2226618;26;2461;-69
2024/04/19 04:07:14;;;;;;;;;;;;;;;20.32;46.39;100437.53;2222158;26;2138;-68
2024/04/19 04:08:15;;;;;;;;;;;;;;;20.31;46.62;100436.81;2222490;26;2311;-69
2024/04/19 04:09:17;;;;;;;;;;;;;;;20.31;46.47;100425.31;2220408;26;2237;-68
2024/04/19 04:10:18;;;;;;;;;;;;;;;20.32;46.55;100431.78;2221504;26;2299;-69
2024/04/19 04:11:22;;;;;;;;;;;;;;;20.32;46.94;100438.28;2227652;26;2259;-69
2024/04/19 04:12:23;;;;;;;;;;;;;;;20.32;46.34;100431.78;2230488;26;2183;-68
2024/04/19 04:13:25;;;;;;;;;;;;;;;20.31;46.55;100425.31;2220884;26;2233;-68
2024/04/19 04:14:26;;;;;;;;;;;;;;;20.31;46.52;100422.44;2221292;26;2287;-69
2024/04/19 04:15:27;;;;;;;;;;;;;;;20.31;46.15;100419.56;2222543;26;2216;-69
2024/04/19 04:16:29;;;;;;;;;;;;;;;20.31;46.43;100419.56;2222582;26;1926;-68
2024/04/19 04:17:31;;;;;;;;;;;;;;;20.31;46.76;100419.56;2227992;26;2343;-68
2024/04/19 04:18:32;;;;;;;;;;;;;;;20.31;46.42;100422.44;2222295;26;2307;-68
2024/04/19 04:19:34;;;;;;;;;;;;;;;20.32;46.70;100414.53;2224696;26;2327;-69
2024/04/19 04:20:36;;;;;;;;;;;;;;;20.32;46.45;100414.53;2220472;26;2069;-69
2024/04/19 04:21:37;;;;;;;;;;;;;;;20.31;46.41;100413.78;2220507;26;2330;-68
2024/04/19 04:22:39;;;;;;;;;;;;;;;20.33;46.62;100413.16;2223337;26;2542;-68
2024/04/19 04:23:40;;;;;;;;;;;;;;;20.32;46.67;100408.78;2220420;26;2252;-69
2024/04/19 04:24:42;;;;;;;;;;;;;;;20.32;47.12;100415.28;2222237;26;2143;-69
2024/04/19 04:25:43;;;;;;;;;;;;;;;20.33;46.74;100411.00;2225168;26;2280;-68
2024/04/19 04:26:45;;;;;;;;;;;;;;;20.33;46.90;100410.28;2222082;26;2155;-70
2024/04/19 04:27:46;;;;;;;;;;;;;;;20.34;46.54;100411.75;2222706;26;2128;-69
2024/04/19 04:28:48;;;;;;;;;;;;;;;20.33;46.61;100405.25;2222206;26;2251;-69
2024/04/19 04:29:50;;;;;;;;;;;;;;;20.33;46.70;100399.50;2221596;26;2292;-69
2024/04/19 04:30:51;;;;;;;;;;;;;;;20.33;46.69;100399.50;2235112;26;6061;-68
2024/04/19 04:31:53;;;;;;;;;;;;;;;20.34;46.71;100401.00;2236277;26;2266;-69
2024/04/19 04:32:54;;;;;;;;;;;;;;;20.35;47.06;100404.59;2235191;26;2555;-69
2024/04/19 04:33:56;;;;;;;;;;;;;;;20.34;46.32;100400.22;2236331;26;2336;-68
2024/04/19 04:34:57;;;;;;;;;;;;;;;20.34;46.61;100398.13;2235617;26;2285;-68
2024/04/19 04:35:59;;;;;;;;;;;;;;;20.34;46.55;100389.50;2229930;26;2098;-69
2024/04/19 04:37:01;;;;;;;;;;;;;;;20.35;46.22;100396.72;2238049;26;2144;-69
2024/04/19 04:38:03;;;;;;;;;;;;;;;20.35;46.46;100396.72;2237717;26;2237;-69
2024/04/19 04:39:06;;;;;;;;;;;;;;;20.35;46.17;100396.72;2236460;26;2095;-69
2024/04/19 04:40:08;;;;;;;;;;;;;;;20.36;46.42;100392.41;2237465;26;2200;-69
2024/04/19 04:41:09;;;;;;;;;;;;;;;20.36;46.44;100397.44;2231886;26;2056;-69
2024/04/19 04:42:11;;;;;;;;;;;;;;;20.36;46.86;100383.81;2232424;26;2262;-69
2024/04/19 04:43:16;;;;;;;;;;;;;;;20.36;47.03;100392.41;2234752;26;2321;-69
2024/04/19 04:44:17;;;;;;;;;;;;;;;20.36;46.74;100380.91;2235770;26;2262;-69
2024/04/19 04:45:19;;;;;;;;;;;;;;;20.35;47.08;100385.22;2230955;26;2275;-69
2024/04/19 04:46:20;;;;;;;;;;;;;;;20.35;47.12;100385.22;2231756;26;2229;-69
2024/04/19 04:47:22;;;;;;;;;;;;;;;20.36;46.76;100383.06;2236709;26;2306;-69
2024/04/19 04:48:23;;;;;;;;;;;;;;;20.36;46.80;100374.44;2237502;26;2190;-68
2024/04/19 04:49:25;;;;;;;;;;;;;;;20.35;47.26;100379.47;2236808;26;2081;-69
2024/04/19 04:50:26;;;;;;;;;;;;;;;20.35;46.89;100379.47;2236401;26;2260;-68
2024/04/19 04:51:28;;;;;;;;;;;;;;;20.35;47.08;100367.97;2238605;26;2580;-68
2024/04/19 04:52:29;;;;;;;;;;;;;;;20.35;47.08;100370.09;2232571;26;2255;-68
2024/04/19 04:53:31;;;;;;;;;;;;;;;20.35;46.76;100367.97;2236342;26;2408;-67
2024/04/19 04:54:32;;;;;;;;;;;;;;;20.35;46.70;100367.97;2233966;26;2116;-69
2024/04/19 04:55:34;;;;;;;;;;;;;;;20.34;46.61;100366.50;2233570;26;2340;-69
2024/04/19 04:56:36;;;;;;;;;;;;;;;20.35;47.18;100362.22;2230561;26;2390;-69
2024/04/19 04:57:37;;;;;;;;;;;;;;;20.34;47.01;100355.00;2234971;26;2242;-68
2024/04/19 04:58:40;;;;;;;;;;;;;;;20.36;46.85;100362.94;2233572;26;2239;-68
2024/04/19 04:59:41;;;;;;;;;;;;;;;20.34;46.82;100355.00;2234046;26;2253;-68
2024/04/19 05:00:43;;;;;;;;;;;;;;;20.36;46.66;100357.91;2232000;26;5946;-68
2024/04/19 05:01:44;;;;;;;;;;;;;;;20.35;46.67;100353.56;2236773;26;2160;-68
2024/04/19 05:02:46;;;;;;;;;;;;;;;20.37;46.76;100365.16;2238518;26;2081;-69
2024/04/19 05:03:47;;;;;;;;;;;;;;;20.34;46.89;100351.34;2234442;26;2242;-68
2024/04/19 05:04:49;;;;;;;;;;;;;;;20.39;47.61;100348.00;2233952;26;2285;-66
2024/04/19 05:05:53;;;;;;;;;;;;;;;20.44;46.93;100351.75;2233616;26;2303;-66
2024/04/19 05:06:54;;;;;;;;;;;;;;;20.45;47.03;100347.47;2237771;26;2157;-67
2024/04/19 05:07:56;;;;;;;;;;;;;;;20.43;46.79;100348.16;2234226;26;2256;-68
2024/04/19 05:08:58;;;;;;;;;;;;;;;20.18;46.13;100348.59;2235216;26;2421;-67
2024/04/19 05:09:59;;;;;;;;;;;;;;;19.91;45.52;100338.94;2233040;26;2296;-72
2024/04/19 05:11:00;;;;;;;;;;;;;;;19.87;45.39;100344.53;2233932;26;2316;-71
2024/04/19 05:12:04;;;;;;;;;;;;;;;20.06;46.01;100335.22;2223504;26;3890;-71
2024/04/19 05:13:06;;;;;;;;;;;;;;;20.20;45.90;100342.91;2232374;26;2709;-71
2024/04/19 05:14:08;;;;;;;;;;;;;;;20.28;45.22;100340.38;2239145;26;2627;-72
2024/04/19 05:15:09;;;;;;;;;;;;;;;20.35;45.81;100326.97;2239052;26;2419;-71
2024/04/19 05:16:11;;;;;;;;;;;;;;;20.40;45.72;100329.31;2233270;26;2392;-71
2024/04/19 05:17:12;;;;;;;;;;;;;;;20.45;45.34;100330.22;2238026;26;2882;-71
2024/04/19 05:18:16;;;;;;;;;;;;;;;20.47;45.66;100322.41;2238376;26;2471;-71
2024/04/19 05:19:18;;;;;;;;;;;;;;;20.51;45.74;100328.31;2237089;26;2522;-74
2024/04/19 05:20:19;;;;;;;;;;;;;;;20.56;45.53;100316.97;2236930;26;2504;-73
2024/04/19 05:21:21;;;;;;;;;;;;;;;20.58;46.06;100308.44;2243310;26;2117;-72
2024/04/19 05:22:22;;;;;;;;;;;;;;;20.62;46.08;100314.34;2243019;26;2207;-72
2024/04/19 05:23:24;;;;;;;;;;;;;;;20.67;46.08;100313.06;2239131;26;2338;-72
2024/04/19 05:24:25;;;;;;;;;;;;;;;20.67;45.82;100310.22;2236523;26;2411;-70
2024/04/19 05:25:26;;;;;;;;;;;;;;;20.76;45.74;100317.00;2239545;26;2389;-72
2024/04/19 05:26:28;;;;;;;;;;;;;;;20.84;45.43;100303.63;2243115;26;2460;-72
2024/04/19 05:27:30;;;;;;;;;;;;;;;20.83;45.75;100305.03;2237976;26;2234;-74
2024/04/19 05:28:32;;;;;;;;;;;;;;;20.85;45.50;100302.22;2232207;26;2792;-74
2024/04/19 05:29:33;;;;;;;;;;;;;;;20.75;45.25;100298.25;2235773;26;2701;-73